Friedman Memorial Airport
KSUN : now visible

Airfield :











YOU CAN JOIN US ON...

 
LOGIN :

Register | Disclaimer

   EN    FR    IT 

 









Legend :    VFR   Marginal VFR   IFR   Intensive IFR   Very Intensive IFR
Visi :
Ceiling :
>= 8 km
>= 3000ft
5 to 8 km
1000 to 3000 ft
1500m to 5 km
500 to 1000 ft
800 to 1500m
200 to 500 ft
< 800m
< 200 ft
Symbols :   Thunderstorms  Fog  Heavy snow  Heavy precipitations  Wind > 20 kt







- Airport Elevation : 5318 ft


KSUN - Friedman Memorial

CURRENT METAR :
  • 210835Z AUTO 00000KT 10SM -RA BKN024 OVC033 05/04 A2970 RMK AO2

EXPIRED METARs :
  • 210815Z AUTO 36003KT 10SM -DZ BKN026 OVC033 05/04 A2970 RMK AO2
  • 210755Z AUTO 32003KT 10SM OVC026 05/04 A2970 RMK AO2 P0001
  • 210735Z AUTO 31003KT 10SM -DZ OVC028 05/04 A2971 RMK AO2 P0001
  • 210715Z AUTO 31004KT 5SM RA SCT027 BKN032 OVC043 05/04 A2972 RMK AO2 P0001
  • 210655Z AUTO 28003KT 10SM RA SCT029 BKN035 OVC045 05/04 A2972 RMK AO2
  • 210635Z AUTO 30004KT 10SM -DZ SCT026 BKN035 OVC046 05/05 A2973 RMK AO2
  • 210615Z AUTO 30005KT 10SM -DZ BKN026 OVC042 05/05 A2973 RMK AO2

TAF KSUN
Valid from the 21 at 06:00 until the 22 at 12:00 UTC


210520Z 2106/2212 19007KT P6SM -SHRA BKN020 OVC035
FM211900 13006KT P6SM VCSH SCT025 BKN035
FM220400 VRB06KT P6SM -SHRA SCT015 BKN040 AMD LTD TO CLD VIS AND WIND TIL 211300
KZLC FIR / North America



MET'MAP, your aeronautical weather chart ! - Copyright ORBIFLY December 2007 - Disclaimer

ORBIFLY MET'MAP TEAM :

Programming & Development : Alexandra Zaïnal
Concept & Development : Baudouin d'Aumeries
Co-Development & Prog : Marc-Olivier Méhu
Technical & hardware support : Manuel Goepfert

Contact : metmap@orbifly.com




SOURCES & CREDITS :

   NOAA       Earth
Advisory